Time;durP1;ratioP1;P1;durP2;ratioP2;P2;SDS_P1;SDS_P2;PMS_P1;PMS_P2;Temp;Humidity;BMP_temperature;BMP_pressure;BME280_temperature;BME280_humidity;BME280_pressure;Samples;Min_cycle;Max_cycle;Signal;HPM_P1;HPM_P2
2023/11/09 00:01:18;;;;;;;0.57;0.20;;;10.30;99.90;;;;;;6096237;23;20030;-81
2023/11/09 00:03:48;;;;;;;0.75;0.20;;;10.30;99.90;;;;;;6095097;23;20397;-81
2023/11/09 00:06:17;;;;;;;0.77;0.10;;;10.30;99.90;;;;;;6096374;23;20077;-81
2023/11/09 00:08:44;;;;;;;0.98;0.20;;;10.30;99.90;;;;;;6048138;23;20026;-80
2023/11/09 00:11:11;;;;;;;0.50;0.20;;;10.30;99.90;;;;;;6072360;23;20025;-81
2023/11/09 00:13:38;;;;;;;1.08;0.20;;;10.30;99.90;;;;;;6072288;23;20050;-80
2023/11/09 00:16:05;;;;;;;1.02;0.30;;;10.30;99.90;;;;;;6096163;23;20019;-80
2023/11/09 00:18:32;;;;;;;0.73;0.15;;;10.30;99.90;;;;;;6072053;23;20073;-81
2023/11/09 00:21:00;;;;;;;0.63;0.30;;;10.30;99.90;;;;;;6120299;23;20348;-81
2023/11/09 00:23:27;;;;;;;0.77;0.30;;;10.30;99.90;;;;;;6071973;23;20022;-81
2023/11/09 00:25:54;;;;;;;0.57;0.20;;;10.30;99.90;;;;;;6120171;23;20113;-81
2023/11/09 00:28:21;;;;;;;0.63;0.30;;;10.30;99.90;;;;;;6095893;23;20034;-80
2023/11/09 00:30:48;;;;;;;0.80;0.30;;;10.30;99.90;;;;;;6120282;23;20029;-81
2023/11/09 00:33:15;;;;;;;0.40;0.20;;;10.30;99.90;;;;;;6071840;23;20447;-80
2023/11/09 00:35:44;;;;;;;1.13;0.30;;;10.30;99.90;;;;;;6071587;23;20018;-81
2023/11/09 00:38:14;;;;;;;0.90;0.30;;;10.30;99.90;;;;;;6072207;23;20088;-81
2023/11/09 00:40:42;;;;;;;0.55;0.30;;;10.30;99.90;;;;;;6096319;23;20026;-80
2023/11/09 00:43:09;;;;;;;1.95;0.50;;;10.30;99.90;;;;;;6048248;23;20073;-81
2023/11/09 00:45:36;;;;;;;0.85;0.30;;;10.30;99.90;;;;;;6071671;23;20030;-80
2023/11/09 00:48:06;;;;;;;0.68;0.13;;;10.30;99.90;;;;;;6047918;23;20397;-81
2023/11/09 00:50:33;;;;;;;0.80;0.30;;;10.30;99.90;;;;;;6096203;23;20029;-80
2023/11/09 00:53:00;;;;;;;0.50;0.20;;;10.30;99.90;;;;;;6095763;23;20031;-81
2023/11/09 00:55:27;;;;;;;0.60;0.30;;;10.30;99.90;;;;;;6072111;23;20437;-81
2023/11/09 00:57:55;;;;;;;0.60;0.22;;;10.30;99.90;;;;;;6047920;23;20022;-80
2023/11/09 01:00:22;;;;;;;1.15;0.20;;;10.30;99.90;;;;;;6071948;23;20026;-80
2023/11/09 01:02:51;;;;;;;0.60;0.20;;;10.30;99.90;;;;;;6071618;23;20042;-80
2023/11/09 01:05:18;;;;;;;1.90;0.30;;;10.30;99.90;;;;;;6071455;23;20033;-80
2023/11/09 01:07:46;;;;;;;1.17;0.40;;;10.30;99.90;;;;;;6048248;23;20026;-80
2023/11/09 01:10:13;;;;;;;0.82;0.20;;;10.30;99.90;;;;;;6096737;23;20014;-80
2023/11/09 01:12:40;;;;;;;0.70;0.30;;;10.30;99.90;;;;;;6095720;23;20022;-80
2023/11/09 01:15:08;;;;;;;0.75;0.30;;;10.30;99.90;;;;;;6119961;23;20066;-81
2023/11/09 01:17:38;;;;;;;1.02;0.30;;;10.30;99.90;;;;;;6095755;23;20018;-80
2023/11/09 01:20:06;;;;;;;0.55;0.30;;;10.30;99.90;;;;;;6071860;23;20405;-81
2023/11/09 01:22:34;;;;;;;1.20;0.30;;;10.30;99.90;;;;;;6071673;23;20326;-81
2023/11/09 01:25:01;;;;;;;0.40;0.20;;;10.30;99.90;;;;;;6120179;23;20054;-81
2023/11/09 01:27:28;;;;;;;0.50;0.20;;;10.30;99.90;;;;;;6071372;23;20030;-81
2023/11/09 01:29:56;;;;;;;0.50;0.20;;;10.30;99.90;;;;;;6095397;23;20837;-81
2023/11/09 01:32:25;;;;;;;0.50;0.20;;;10.30;99.90;;;;;;6071403;23;20022;-81
2023/11/09 01:34:52;;;;;;;0.80;0.20;;;10.30;99.90;;;;;;6120000;23;20029;-81
2023/11/09 01:37:19;;;;;;;0.32;0.20;;;10.30;99.90;;;;;;6071181;23;20023;-81
2023/11/09 01:39:47;;;;;;;0.45;0.22;;;10.30;99.90;;;;;;6095607;23;20073;-81
2023/11/09 01:42:14;;;;;;;0.90;0.40;;;10.30;99.90;;;;;;6095048;23;20048;-81
2023/11/09 01:44:41;;;;;;;0.63;0.32;;;10.30;99.90;;;;;;6095091;23;20026;-81
2023/11/09 01:47:09;;;;;;;0.30;0.20;;;10.30;99.90;;;;;;6071446;23;20030;-81
2023/11/09 01:49:37;;;;;;;0.75;0.30;;;10.30;99.90;;;;;;6047818;23;20032;-81
2023/11/09 01:52:05;;;;;;;0.98;0.45;;;10.30;99.90;;;;;;6128177;23;20022;-81
2023/11/09 01:54:35;;;;;;;0.77;0.22;;;10.30;99.90;;;;;;6085124;23;20018;-81
2023/11/09 01:57:03;;;;;;;1.38;0.30;;;10.30;99.90;;;;;;6113933;23;20018;-81
2023/11/09 01:59:32;;;;;;;0.30;0.20;;;10.30;99.90;;;;;;6054368;23;20050;-80
2023/11/09 02:02:01;;;;;;;0.63;0.20;;;10.30;99.90;;;;;;6100971;23;20027;-80
2023/11/09 02:04:28;;;;;;;0.95;0.50;;;10.30;99.90;;;;;;6049694;23;20022;-80
2023/11/09 02:06:56;;;;;;;0.65;0.20;;;10.30;99.90;;;;;;6096071;23;20023;-80
2023/11/09 02:09:26;;;;;;;0.70;0.30;;;10.30;99.90;;;;;;6095609;23;20030;-80
2023/11/09 02:11:53;;;;;;;0.95;0.20;;;10.30;99.90;;;;;;6071796;23;20039;-80
2023/11/09 02:14:22;;;;;;;0.47;0.20;;;10.30;99.90;;;;;;6071199;23;20018;-80
2023/11/09 02:16:50;;;;;;;0.45;0.17;;;10.30;99.90;;;;;;6071293;23;20026;-80
2023/11/09 02:19:18;;;;;;;0.93;0.25;;;10.30;99.90;;;;;;6047670;23;20442;-80
2023/11/09 02:21:51;;;;;;;0.52;0.20;;;10.30;99.90;;;;;;6095821;23;20023;-80
2023/11/09 02:24:21;;;;;;;0.70;0.30;;;10.30;99.90;;;;;;6047579;23;20119;-79
2023/11/09 02:26:48;;;;;;;0.32;0.20;;;10.30;99.90;;;;;;6048145;23;20030;-80
2023/11/09 02:29:19;;;;;;;0.80;0.40;;;10.30;99.90;;;;;;6097133;23;20445;-80
2023/11/09 02:31:47;;;;;;;0.43;0.30;;;10.30;99.90;;;;;;6072285;23;20345;-80
2023/11/09 02:34:19;;;;;;;2.10;0.40;;;10.30;99.90;;;;;;6072988;23;20014;-80
2023/11/09 02:36:47;;;;;;;0.40;0.20;;;10.30;99.90;;;;;;6121650;23;20058;-80
2023/11/09 02:39:14;;;;;;;1.58;0.50;;;10.30;99.90;;;;;;6073064;23;20129;-80
2023/11/09 02:41:42;;;;;;;1.23;0.30;;;10.30;99.90;;;;;;6096713;23;20125;-80
2023/11/09 02:44:09;;;;;;;0.38;0.20;;;10.30;99.90;;;;;;6073022;23;20060;-80
2023/11/09 02:46:36;;;;;;;0.60;0.30;;;10.30;99.90;;;;;;6097440;23;20034;-80
2023/11/09 02:49:03;;;;;;;0.43;0.20;;;10.30;99.90;;;;;;6072943;23;20029;-81
2023/11/09 02:51:31;;;;;;;0.45;0.20;;;10.30;99.90;;;;;;6072752;23;20077;-80
2023/11/09 02:53:58;;;;;;;1.55;0.30;;;10.30;99.90;;;;;;6097169;23;20018;-80
2023/11/09 02:56:25;;;;;;;0.80;0.30;;;10.40;99.90;;;;;;6072998;23;20108;-80
2023/11/09 02:58:52;;;;;;;0.50;0.20;;;10.40;99.90;;;;;;6049220;23;20056;-80
2023/11/09 03:01:19;;;;;;;0.55;0.30;;;10.40;99.90;;;;;;6097502;23;20033;-81
2023/11/09 03:03:47;;;;;;;0.22;0.20;;;10.40;99.90;;;;;;6096295;23;20030;-80
2023/11/09 03:06:14;;;;;;;0.65;0.20;;;10.40;99.90;;;;;;6048944;23;20528;-81
2023/11/09 03:08:41;;;;;;;0.43;0.20;;;10.40;99.90;;;;;;6072978;23;20390;-81
2023/11/09 03:11:09;;;;;;;0.52;0.30;;;10.40;99.90;;;;;;6073001;23;20026;-80
2023/11/09 03:13:39;;;;;;;0.30;0.20;;;10.40;99.90;;;;;;6072659;23;20026;-80
2023/11/09 03:16:10;;;;;;;0.80;0.38;;;10.40;99.90;;;;;;6049091;23;20433;-80
2023/11/09 03:18:39;;;;;;;1.23;0.40;;;10.40;99.90;;;;;;6072841;23;20327;-80
2023/11/09 03:21:07;;;;;;;0.57;0.30;;;10.40;99.90;;;;;;6072696;23;20026;-80
2023/11/09 03:23:35;;;;;;;0.52;0.40;;;10.40;99.90;;;;;;6097315;23;20028;-80
2023/11/09 03:26:02;;;;;;;1.17;0.50;;;10.40;99.90;;;;;;6096889;23;20448;-80
2023/11/09 03:28:29;;;;;;;1.30;0.70;;;10.40;99.90;;;;;;6072636;23;20026;-80
2023/11/09 03:30:59;;;;;;;0.80;0.43;;;10.40;99.90;;;;;;6073039;23;20015;-80
2023/11/09 03:33:26;;;;;;;0.50;0.30;;;10.40;99.90;;;;;;6071907;23;20050;-80
2023/11/09 03:35:53;;;;;;;0.60;0.40;;;10.50;99.90;;;;;;6072859;23;20449;-81
2023/11/09 03:38:20;;;;;;;0.75;0.40;;;10.50;99.90;;;;;;6120226;23;20029;-80
2023/11/09 03:40:48;;;;;;;0.57;0.38;;;10.50;99.90;;;;;;6073092;23;20022;-81
2023/11/09 03:43:15;;;;;;;0.98;0.43;;;10.50;99.90;;;;;;6072540;23;20077;-80
2023/11/09 03:45:42;;;;;;;2.70;0.30;;;10.50;99.90;;;;;;6096676;23;20353;-81
2023/11/09 03:48:09;;;;;;;1.48;0.30;;;10.50;99.90;;;;;;6072648;23;20028;-81
2023/11/09 03:50:36;;;;;;;0.50;0.30;;;10.50;99.90;;;;;;6096841;23;20021;-80
2023/11/09 03:53:03;;;;;;;0.75;0.30;;;10.50;99.90;;;;;;6120980;23;20018;-81
2023/11/09 03:55:31;;;;;;;1.05;0.30;;;10.50;99.90;;;;;;6096784;23;20487;-81
2023/11/09 03:57:58;;;;;;;0.80;0.40;;;10.50;99.90;;;;;;6096506;23;20023;-80
2023/11/09 04:00:25;;;;;;;1.23;0.22;;;10.60;99.90;;;;;;6072430;23;20437;-80
2023/11/09 04:02:52;;;;;;;0.60;0.40;;;10.50;99.90;;;;;;6072240;23;20072;-80
2023/11/09 04:05:19;;;;;;;0.75;0.40;;;10.60;99.90;;;;;;6072081;23;20026;-81
2023/11/09 04:07:46;;;;;;;0.68;0.30;;;10.60;99.90;;;;;;6048779;23;20037;-80
2023/11/09 04:10:14;;;;;;;0.90;0.40;;;10.60;99.90;;;;;;6072124;23;20480;-80
2023/11/09 04:12:43;;;;;;;1.70;0.70;;;10.60;99.90;;;;;;6071753;23;20032;-80
2023/11/09 04:15:10;;;;;;;0.85;0.57;;;10.60;99.90;;;;;;6072301;23;20134;-79
2023/11/09 04:17:39;;;;;;;1.63;0.85;;;10.60;99.90;;;;;;6095997;23;20018;-80
2023/11/09 04:20:07;;;;;;;1.00;0.60;;;10.60;99.90;;;;;;6095974;23;20069;-80
2023/11/09 04:22:35;;;;;;;3.28;1.02;;;10.70;99.90;;;;;;6071940;23;20069;-81
2023/11/09 04:25:02;;;;;;;1.25;0.70;;;10.60;99.90;;;;;;6120227;23;20082;-81
2023/11/09 04:27:34;;;;;;;2.13;0.95;;;10.60;99.90;;;;;;6120570;23;20014;-81
2023/11/09 04:30:01;;;;;;;1.05;0.60;;;10.70;99.90;;;;;;6120221;23;20014;-81
2023/11/09 04:32:29;;;;;;;1.38;0.82;;;10.70;99.90;;;;;;6095554;23;20050;-81
2023/11/09 04:34:57;;;;;;;1.73;0.80;;;10.70;99.90;;;;;;6120066;23;20042;-80
2023/11/09 04:37:25;;;;;;;1.10;0.47;;;10.70;99.90;;;;;;6096057;23;20018;-81
2023/11/09 04:39:58;;;;;;;1.35;0.70;;;10.70;99.90;;;;;;6095015;23;20052;-81
2023/11/09 04:42:29;;;;;;;;;;;10.70;99.90;;;;;;6072538;23;20022;-81
2023/11/09 04:44:56;;;;;;;1.85;0.60;;;10.70;99.90;;;;;;6095725;23;19923;-81
2023/11/09 04:47:25;;;;;;;0.68;0.40;;;10.70;99.90;;;;;;6071588;23;20022;-81
2023/11/09 04:49:58;;;;;;;1.75;0.70;;;10.70;99.90;;;;;;6119753;23;20022;-81
2023/11/09 04:52:29;;;;;;;1.30;0.70;;;10.70;99.90;;;;;;6070523;23;20038;-81
2023/11/09 04:55:07;;;;;;;2.33;0.90;;;10.80;99.90;;;;;;6119888;23;20018;-81
2023/11/09 05:08:37;;;;;;;3.33;1.05;;;10.80;99.90;;;;;;6095123;23;20023;-81
2023/11/09 05:11:04;;;;;;;1.65;1.10;;;10.80;99.90;;;;;;6071782;23;20105;-81
2023/11/09 05:13:31;;;;;;;1.85;0.95;;;10.80;99.90;;;;;;6071227;23;20379;-81
2023/11/09 05:15:58;;;;;;;3.42;1.80;;;10.80;99.90;;;;;;6095646;23;20106;-80
2023/11/09 05:18:26;;;;;;;2.25;1.27;;;10.80;99.90;;;;;;6071786;23;20077;-81
2023/11/09 05:20:53;;;;;;;2.53;0.95;;;10.80;99.90;;;;;;6070725;23;20030;-81
2023/11/09 05:23:20;;;;;;;3.67;1.88;;;10.80;99.90;;;;;;6071461;23;20030;-81
2023/11/09 05:25:47;;;;;;;2.97;1.48;;;10.80;99.90;;;;;;6095204;23;20026;-81
2023/11/09 05:28:14;;;;;;;3.17;1.80;;;10.80;99.90;;;;;;6095121;23;20110;-80
2023/11/09 05:30:41;;;;;;;3.15;1.35;;;10.80;99.90;;;;;;6095486;23;20053;-81
2023/11/09 05:33:08;;;;;;;2.80;1.70;;;10.80;99.90;;;;;;6119294;23;20022;-81
2023/11/09 05:35:35;;;;;;;2.63;1.55;;;10.80;99.90;;;;;;6071754;23;20062;-81
2023/11/09 05:38:03;;;;;;;3.17;1.60;;;10.90;99.90;;;;;;6071529;23;20026;-81
2023/11/09 05:40:30;;;;;;;7.78;3.85;;;10.90;99.90;;;;;;6095304;23;20360;-81
2023/11/09 05:42:59;;;;;;;6.07;3.38;;;10.90;99.90;;;;;;6095616;23;20022;-81
2023/11/09 05:45:26;;;;;;;6.35;3.95;;;10.80;99.90;;;;;;6095178;23;20023;-81
2023/11/09 05:47:53;;;;;;;6.40;3.30;;;10.80;99.90;;;;;;6095669;23;20062;-81
2023/11/09 05:50:21;;;;;;;3.40;2.20;;;10.80;99.90;;;;;;6108819;23;20045;-81
2023/11/09 05:52:48;;;;;;;4.70;2.50;;;10.70;99.90;;;;;;6117163;23;20025;-82
2023/11/09 05:55:15;;;;;;;5.80;3.03;;;10.70;99.90;;;;;;6119439;23;20081;-82
2023/11/09 05:57:42;;;;;;;5.63;3.15;;;10.60;99.90;;;;;;6104499;23;20081;-81
2023/11/09 06:00:10;;;;;;;5.53;3.35;;;10.60;99.90;;;;;;6097428;23;20105;-81
2023/11/09 06:02:38;;;;;;;4.38;2.50;;;10.50;99.90;;;;;;6074108;23;20021;-81
2023/11/09 06:05:05;;;;;;;4.82;2.65;;;10.50;99.90;;;;;;6097515;23;20054;-81
2023/11/09 06:07:34;;;;;;;5.28;2.55;;;10.50;99.90;;;;;;6049612;23;20449;-81
2023/11/09 06:10:03;;;;;;;4.30;2.20;;;10.50;99.90;;;;;;6073425;23;20033;-81
2023/11/09 06:12:30;;;;;;;4.78;1.92;;;10.50;99.90;;;;;;6049735;23;20030;-81
2023/11/09 06:14:57;;;;;;;4.80;2.28;;;10.50;99.90;;;;;;6121944;23;20441;-81
2023/11/09 06:17:24;;;;;;;4.53;2.42;;;10.50;99.90;;;;;;6097090;23;20022;-81
2023/11/09 06:19:51;;;;;;;4.57;2.47;;;10.60;99.90;;;;;;6097358;23;20046;-81
2023/11/09 06:22:18;;;;;;;5.50;3.03;;;10.60;99.90;;;;;;6073188;23;20027;-81
2023/11/09 06:24:45;;;;;;;8.27;2.92;;;10.60;99.90;;;;;;6073628;23;20441;-81
2023/11/09 06:27:17;;;;;;;6.35;3.55;;;10.50;99.90;;;;;;6097183;23;20034;-81
2023/11/09 06:29:44;;;;;;;7.43;3.97;;;10.50;99.90;;;;;;6096550;23;20025;-81
2023/11/09 06:32:12;;;;;;;4.68;2.33;;;10.50;99.90;;;;;;6097370;23;20330;-80
2023/11/09 06:34:41;;;;;;;8.75;3.90;;;10.50;99.90;;;;;;6121070;23;20023;-81
2023/11/09 06:37:08;;;;;;;5.50;3.08;;;10.50;99.90;;;;;;6072767;23;20014;-81
2023/11/09 06:39:35;;;;;;;5.60;2.90;;;10.40;99.90;;;;;;6073074;23;20049;-81
2023/11/09 06:42:02;;;;;;;5.28;3.10;;;10.40;99.90;;;;;;6121175;23;20022;-81
2023/11/09 06:44:29;;;;;;;5.00;2.33;;;10.40;99.90;;;;;;6096971;23;20033;-81
2023/11/09 06:46:58;;;;;;;6.20;3.45;;;10.40;99.90;;;;;;6096953;23;20109;-81
2023/11/09 06:49:26;;;;;;;7.20;3.10;;;10.40;99.90;;;;;;6096137;23;20463;-81
2023/11/09 06:51:53;;;;;;;5.88;2.60;;;10.40;99.90;;;;;;6096492;23;20038;-81
2023/11/09 06:54:20;;;;;;;4.75;2.20;;;10.40;99.90;;;;;;6073189;23;20489;-81
2023/11/09 06:56:47;;;;;;;7.60;3.15;;;10.40;99.90;;;;;;6096775;23;20022;-81
2023/11/09 06:59:14;;;;;;;5.60;2.67;;;10.30;99.90;;;;;;6072991;23;20034;-81
2023/11/09 07:01:43;;;;;;;5.18;2.22;;;10.30;99.90;;;;;;6072504;23;20112;-81
2023/11/09 07:04:10;;;;;;;4.72;2.10;;;10.30;99.90;;;;;;6072903;23;20026;-81
2023/11/09 07:06:37;;;;;;;6.95;2.15;;;10.30;99.90;;;;;;6096204;23;20141;-81
2023/11/09 07:09:05;;;;;;;5.95;2.40;;;10.30;99.90;;;;;;6096887;23;20397;-81
2023/11/09 07:11:32;;;;;;;6.85;2.60;;;10.30;99.90;;;;;;6096357;23;20022;-81
2023/11/09 07:14:02;;;;;;;6.80;2.70;;;10.30;99.90;;;;;;6119488;23;20029;-82
2023/11/09 07:16:29;;;;;;;5.57;2.70;;;10.30;99.90;;;;;;6120715;23;20034;-81
2023/11/09 07:18:56;;;;;;;5.80;2.42;;;10.30;99.90;;;;;;6096760;23;20019;-81
2023/11/09 07:21:23;;;;;;;6.88;2.70;;;10.20;99.90;;;;;;6120865;23;20081;-81
2023/11/09 07:23:59;;;;;;;6.65;4.13;;;10.20;99.90;;;;;;6048608;23;20479;-81
2023/11/09 07:26:27;;;;;;;8.18;3.40;;;10.20;99.90;;;;;;6072888;23;20449;-81
2023/11/09 07:28:54;;;;;;;11.10;3.47;;;10.20;99.90;;;;;;6097012;23;20353;-81
2023/11/09 07:31:21;;;;;;;6.88;3.22;;;10.20;99.90;;;;;;6096690;23;20022;-82
2023/11/09 07:33:56;;;;;;;6.75;3.53;;;10.10;99.90;;;;;;6098256;23;20407;-82
2023/11/09 07:36:28;;;;;;;6.47;3.27;;;10.20;99.90;;;;;;6121037;23;20079;-81
2023/11/09 07:38:55;;;;;;;6.05;2.70;;;10.10;99.90;;;;;;6096534;23;20262;-82
2023/11/09 07:41:27;;;;;;;7.20;3.92;;;10.20;99.90;;;;;;6072169;23;20335;-82
2023/11/09 07:43:54;;;;;;;5.60;3.40;;;10.10;99.90;;;;;;6095819;23;20033;-81
2023/11/09 07:46:21;;;;;;;5.97;3.08;;;10.10;99.90;;;;;;6095833;23;20029;-81
2023/11/09 07:48:49;;;;;;;7.65;3.33;;;10.10;99.90;;;;;;6096324;23;20085;-82
2023/11/09 07:51:16;;;;;;;6.82;3.33;;;10.10;99.90;;;;;;6072568;23;20030;-81
2023/11/09 07:53:43;;;;;;;8.18;3.47;;;10.10;99.90;;;;;;6096387;23;20023;-81
2023/11/09 07:56:11;;;;;;;8.38;2.83;;;10.10;99.90;;;;;;6072122;23;20022;-81
2023/11/09 07:58:39;;;;;;;6.20;2.97;;;10.10;99.90;;;;;;6096777;23;20030;-81
2023/11/09 08:01:06;;;;;;;4.47;1.80;;;10.10;99.90;;;;;;6095959;23;20750;-81
2023/11/09 08:03:33;;;;;;;4.70;2.08;;;10.10;99.90;;;;;;6096643;23;20029;-81
2023/11/09 08:06:02;;;;;;;5.78;2.30;;;10.10;99.90;;;;;;6096187;23;20104;-81
2023/11/09 08:08:30;;;;;;;5.50;2.70;;;10.10;99.90;;;;;;6072315;23;20018;-81
2023/11/09 08:10:58;;;;;;;5.90;3.22;;;10.20;99.90;;;;;;6071846;23;20053;-82
2023/11/09 08:13:26;;;;;;;5.30;2.72;;;10.20;99.90;;;;;;6071950;23;20078;-81
2023/11/09 08:15:56;;;;;;;5.30;2.13;;;10.20;99.90;;;;;;6096558;23;20322;-82
2023/11/09 08:18:24;;;;;;;5.65;1.90;;;10.20;99.90;;;;;;6072021;23;20022;-81
2023/11/09 08:20:51;;;;;;;3.90;1.73;;;10.20;99.90;;;;;;6096409;23;20449;-81
2023/11/09 08:23:18;;;;;;;4.55;2.20;;;10.30;99.90;;;;;;6071874;23;20022;-81
2023/11/09 08:25:45;;;;;;;6.38;3.22;;;10.30;99.90;;;;;;6096335;23;20109;-81
2023/11/09 08:28:12;;;;;;;6.05;2.78;;;10.40;99.90;;;;;;6096345;23;20029;-81
2023/11/09 08:30:39;;;;;;;4.30;1.85;;;10.40;99.90;;;;;;6072524;23;20053;-82
2023/11/09 08:33:09;;;;;;;6.65;3.33;;;10.50;99.90;;;;;;6120420;23;20046;-82
2023/11/09 08:35:38;;;;;;;7.82;3.47;;;10.50;99.90;;;;;;6120092;23;20386;-82
2023/11/09 08:38:08;;;;;;;6.07;2.83;;;10.50;99.90;;;;;;6071874;23;20015;-82
2023/11/09 08:40:38;;;;;;;7.22;3.53;;;10.50;99.90;;;;;;6096662;23;20050;-82
2023/11/09 08:43:05;;;;;;;9.90;4.72;;;10.50;99.90;;;;;;6071856;23;20030;-84
2023/11/09 08:45:32;;;;;;;12.32;4.88;;;10.50;99.90;;;;;;6120739;23;20026;-83
2023/11/09 08:47:59;;;;;;;8.40;4.07;;;10.50;99.90;;;;;;6095980;23;20025;-83
2023/11/09 08:50:27;;;;;;;11.45;5.63;;;10.40;99.90;;;;;;6048621;23;20026;-83
2023/11/09 08:52:54;;;;;;;9.23;4.47;;;10.40;99.90;;;;;;6120404;23;20022;-83
2023/11/09 08:55:22;;;;;;;13.57;5.40;;;10.40;99.90;;;;;;6095811;23;20041;-83
2023/11/09 09:02:04;;;;;;;10.38;4.80;;;10.40;99.90;;;;;;5876192;24;20489;-87
2023/11/09 09:05:06;;;;;;;9.85;5.40;;;10.50;99.90;;;;;;5891489;23;20357;-87
2023/11/09 09:07:36;;;;;;;10.15;4.50;;;10.50;99.90;;;;;;6009229;23;20027;-85
2023/11/09 09:10:16;;;;;;;;;;;;;;;;;;;;;
2023/11/09 09:13:00;;;;;;;5.28;2.88;;;10.50;99.90;;;;;;6009889;23;20088;-84
2023/11/09 09:15:28;;;;;;;10.20;5.43;;;10.50;99.90;;;;;;5986766;23;20026;-86
2023/11/09 09:17:58;;;;;;;14.02;6.65;;;10.60;99.90;;;;;;5963229;23;20024;-84
2023/11/09 09:20:27;;;;;;;14.30;7.03;;;10.60;99.90;;;;;;5986233;23;20047;-82
2023/11/09 09:22:59;;;;;;;11.15;5.93;;;10.70;99.90;;;;;;5963361;23;20020;-82
2023/11/09 09:25:27;;;;;;;8.77;4.72;;;10.80;99.90;;;;;;5963495;23;20028;-82
2023/11/09 09:27:55;;;;;;;9.13;5.10;;;10.80;99.90;;;;;;5939789;23;20027;-82
2023/11/09 09:30:25;;;;;;;9.02;4.80;;;10.80;99.90;;;;;;6009337;23;20028;-82
2023/11/09 09:32:56;;;;;;;8.57;4.85;;;10.80;99.90;;;;;;5986339;23;20479;-87
2023/11/09 09:35:24;;;;;;;9.95;5.20;;;10.80;99.90;;;;;;5985605;23;20102;-82
2023/11/09 09:37:59;;;;;;;10.43;4.47;;;10.80;99.90;;;;;;5972895;23;20026;-85
2023/11/09 09:40:32;;;;;;;10.70;5.97;;;10.80;99.90;;;;;;6043465;23;20029;-86
2023/11/09 09:43:24;;;;;;;14.82;7.53;;;10.80;99.90;;;;;;6046723;23;20050;-88
2023/11/09 09:46:24;;;;;;;12.50;7.13;;;10.90;99.90;;;;;;6043828;23;20027;-89
2023/11/09 09:48:55;;;;;;;11.13;5.70;;;11.00;99.90;;;;;;6051212;23;20042;-88
2023/11/09 09:51:22;;;;;;;9.45;4.85;;;11.10;99.90;;;;;;6061993;23;20410;-83
2023/11/09 09:54:08;;;;;;;11.40;5.88;;;11.20;99.90;;;;;;6064559;23;20019;-88
2023/11/09 09:56:39;;;;;;;15.90;7.70;;;11.30;99.90;;;;;;6051127;23;20050;-83
2023/11/09 09:59:09;;;;;;;16.98;7.28;;;11.30;99.90;;;;;;6047532;23;20399;-80
2023/11/09 10:01:43;;;;;;;15.77;8.38;;;11.20;99.90;;;;;;6044004;23;20354;-81
2023/11/09 10:04:11;;;;;;;13.55;7.55;;;11.20;99.90;;;;;;6043978;23;20019;-81
2023/11/09 10:06:38;;;;;;;13.73;7.43;;;11.20;99.90;;;;;;6037918;23;20015;-80
2023/11/09 10:09:07;;;;;;;19.33;10.65;;;11.30;99.90;;;;;;6041820;23;20027;-80
2023/11/09 10:11:40;;;;;;;16.15;9.05;;;11.30;99.90;;;;;;5994419;23;20106;-78
2023/11/09 10:14:07;;;;;;;14.65;8.23;;;11.30;99.90;;;;;;6040466;23;20030;-81
2023/11/09 10:16:35;;;;;;;14.55;7.72;;;11.30;99.90;;;;;;6087755;23;20464;-80
2023/11/09 10:19:02;;;;;;;12.07;6.90;;;11.20;99.90;;;;;;6040110;23;20441;-82
2023/11/09 10:21:33;;;;;;;15.07;6.63;;;11.20;99.90;;;;;;6066060;23;20374;-81
2023/11/09 10:24:02;;;;;;;18.33;7.70;;;11.30;99.90;;;;;;6063774;23;20442;-80
2023/11/09 10:26:41;;;;;;;14.45;8.10;;;11.20;99.90;;;;;;6063515;23;20074;-79
2023/11/09 10:29:17;;;;;;;17.48;8.15;;;11.10;99.90;;;;;;6040923;23;20026;-79
2023/11/09 10:31:44;;;;;;;11.95;6.80;;;11.00;99.90;;;;;;6088065;23;20125;-78
2023/11/09 10:34:12;;;;;;;13.75;7.00;;;11.00;99.90;;;;;;6063756;23;20033;-79
2023/11/09 10:36:45;;;;;;;12.10;5.68;;;11.00;99.90;;;;;;6084651;23;20071;-79
2023/11/09 10:39:18;;;;;;;11.23;5.93;;;11.00;99.90;;;;;;6085153;23;20034;-80
2023/11/09 10:41:52;;;;;;;10.65;6.13;;;11.10;99.90;;;;;;6037982;23;20027;-80
2023/11/09 10:44:28;;;;;;;13.02;5.68;;;11.20;99.90;;;;;;6037299;23;20357;-80
2023/11/09 10:46:59;;;;;;;9.68;5.55;;;11.20;99.90;;;;;;6061627;23;20145;-79
2023/11/09 10:49:43;;;;;;;15.48;6.72;;;11.20;99.90;;;;;;6065114;23;20122;-80
2023/11/09 10:52:14;;;;;;;13.20;6.15;;;11.20;99.90;;;;;;6089504;23;20027;-80
2023/11/09 10:54:44;;;;;;;9.13;4.55;;;11.30;99.90;;;;;;6040910;23;20409;-81
2023/11/09 10:57:13;;;;;;;9.50;5.30;;;11.30;99.90;;;;;;6063406;23;20353;-80
2023/11/09 10:59:41;;;;;;;10.15;4.60;;;11.30;99.90;;;;;;6064867;23;20023;-80
2023/11/09 11:02:19;;;;;;;10.98;4.95;;;11.40;99.90;;;;;;6088898;23;20019;-79
2023/11/09 11:04:55;;;;;;;12.05;6.00;;;11.40;99.80;;;;;;6085544;23;20460;-80
2023/11/09 11:07:27;;;;;;;13.50;6.85;;;11.50;99.70;;;;;;6041867;23;20025;-80
2023/11/09 11:10:07;;;;;;;10.77;6.15;;;11.50;99.50;;;;;;6064899;23;20026;-80
2023/11/09 11:12:36;;;;;;;9.70;4.40;;;11.50;99.40;;;;;;6064912;23;20022;-80
2023/11/09 11:15:06;;;;;;;16.05;5.18;;;11.50;99.40;;;;;;6091540;23;20049;-81
2023/11/09 11:18:07;;;;;;;11.70;4.55;;;11.60;99.30;;;;;;6092775;23;20018;-80
2023/11/09 11:20:50;;;;;;;12.57;4.47;;;11.60;99.20;;;;;;6068534;23;20022;-80
2023/11/09 11:23:54;;;;;;;7.90;2.80;;;11.60;99.10;;;;;;6116865;23;20057;-79
2023/11/09 11:26:23;;;;;;;7.07;3.20;;;11.70;99.10;;;;;;6044014;23;20034;-80
2023/11/09 11:28:50;;;;;;;7.53;3.00;;;11.70;99.00;;;;;;6092296;23;20441;-80
2023/11/09 11:31:17;;;;;;;7.22;2.72;;;11.70;99.00;;;;;;6093462;23;20018;-79
2023/11/09 11:33:47;;;;;;;6.13;2.20;;;11.70;98.80;;;;;;6090363;23;20054;-80
2023/11/09 11:36:26;;;;;;;6.75;2.50;;;11.70;98.90;;;;;;6068095;23;20022;-79
2023/11/09 11:39:21;;;;;;;6.22;2.00;;;11.70;98.80;;;;;;6091552;23;20022;-80
2023/11/09 11:41:50;;;;;;;5.32;2.47;;;11.70;98.60;;;;;;6067996;23;20019;-79
2023/11/09 11:44:17;;;;;;;5.25;1.75;;;11.60;98.40;;;;;;6066069;23;20030;-79
2023/11/09 11:46:48;;;;;;;5.75;1.58;;;11.50;98.60;;;;;;6045629;23;20032;-80
2023/11/09 11:49:15;;;;;;;6.57;1.27;;;11.50;98.50;;;;;;6091507;23;20030;-80
2023/11/09 11:51:48;;;;;;;5.53;1.00;;;11.60;98.50;;;;;;6091802;23;20077;-79
2023/11/09 11:54:15;;;;;;;5.90;1.48;;;11.60;98.40;;;;;;6066776;23;20022;-80
2023/11/09 11:56:43;;;;;;;8.38;1.70;;;11.50;98.00;;;;;;6092740;23;20026;-80
2023/11/09 11:59:10;;;;;;;7.78;1.50;;;11.50;97.90;;;;;;6115428;23;20057;-79
2023/11/09 12:01:40;;;;;;;5.63;1.48;;;11.50;97.80;;;;;;6093789;23;20018;-80
2023/11/09 12:04:13;;;;;;;8.65;1.77;;;11.50;97.60;;;;;;6092239;23;20026;-81
2023/11/09 12:06:44;;;;;;;6.07;1.23;;;11.50;97.50;;;;;;6114652;23;20030;-79
2023/11/09 12:09:15;;;;;;;3.97;1.00;;;11.50;97.50;;;;;;6068508;23;20065;-79
2023/11/09 12:11:45;;;;;;;7.00;1.45;;;11.50;97.50;;;;;;6114829;23;20026;-81
2023/11/09 12:14:13;;;;;;;5.10;1.20;;;11.50;97.40;;;;;;6014441;23;1135091;-80
2023/11/09 12:16:42;;;;;;;6.03;1.52;;;11.50;97.30;;;;;;6069841;23;20022;-91
2023/11/09 12:19:14;;;;;;;5.10;1.10;;;11.50;97.30;;;;;;6069563;23;20057;-81
2023/11/09 12:21:45;;;;;;;3.03;0.60;;;11.60;97.10;;;;;;6068496;23;20523;-79
2023/11/09 12:24:23;;;;;;;6.63;0.90;;;11.60;97.10;;;;;;6068644;23;20019;-80
2023/11/09 12:27:06;;;;;;;4.10;0.77;;;11.80;96.80;;;;;;6091777;23;20050;-79
2023/11/09 12:29:43;;;;;;;4.07;0.88;;;11.80;96.50;;;;;;6093123;23;20489;-81
2023/11/09 12:32:12;;;;;;;4.47;0.60;;;11.90;96.10;;;;;;6093123;23;20018;-82
2023/11/09 12:34:41;;;;;;;4.78;1.25;;;11.90;95.90;;;;;;6068114;23;20476;-82
2023/11/09 12:37:13;;;;;;;3.00;0.68;;;12.00;95.80;;;;;;6093539;23;20345;-81
2023/11/09 12:39:42;;;;;;;5.22;0.68;;;12.00;95.90;;;;;;6069467;23;20022;-83
2023/11/09 12:42:12;;;;;;;2.65;0.88;;;12.10;95.90;;;;;;6093486;23;20357;-82
2023/11/09 12:44:42;;;;;;;1.85;0.43;;;12.20;95.90;;;;;;6067992;23;20025;-81
2023/11/09 12:47:11;;;;;;;2.90;0.68;;;12.30;95.90;;;;;;6093443;23;20018;-81
2023/11/09 12:49:44;;;;;;;2.92;0.73;;;12.30;95.70;;;;;;6093318;23;20019;-82
2023/11/09 12:52:12;;;;;;;2.17;0.60;;;12.40;95.40;;;;;;6093046;23;20060;-82
2023/11/09 12:54:40;;;;;;;2.70;0.73;;;12.30;95.30;;;;;;6091451;23;20026;-82
2023/11/09 12:57:08;;;;;;;5.60;0.70;;;12.30;95.20;;;;;;6045362;23;20326;-82
2023/11/09 12:59:41;;;;;;;4.78;1.13;;;12.20;95.20;;;;;;6094597;23;20018;-82
2023/11/09 13:02:16;;;;;;;2.80;0.35;;;12.20;95.30;;;;;;6068214;23;20018;-81
2023/11/09 13:04:51;;;;;;;2.92;0.60;;;12.10;95.40;;;;;;6066828;23;20022;-82
2023/11/09 13:07:24;;;;;;;3.78;0.60;;;12.10;95.40;;;;;;6069077;23;20034;-81
2023/11/09 13:12:44;;;;;;;1.95;0.52;;;12.10;95.50;;;;;;6088428;23;20556;-82
2023/11/09 13:15:14;;;;;;;4.35;0.73;;;12.00;95.50;;;;;;6091397;23;20023;-82